Time;durP1;ratioP1;P1;durP2;ratioP2;P2;SDS_P1;SDS_P2;PMS_P1;PMS_P2;Temp;Humidity;BMP_temperature;BMP_pressure;BME280_temperature;BME280_humidity;BME280_pressure;Samples;Min_cycle;Max_cycle;Signal;HPM_P1;HPM_P2
2023/10/07 00:00:32;;;;;;;2.78;1.63;;;2.80;98.70;;;;;;5134819;27;20076;-82
2023/10/07 00:02:59;;;;;;;1.70;1.10;;;2.80;98.80;;;;;;5137357;27;20468;-81
2023/10/07 00:05:29;;;;;;;3.00;1.70;;;2.70;98.80;;;;;;5128782;27;20073;-82
2023/10/07 00:08:12;;;;;;;1.45;1.27;;;2.70;99.00;;;;;;5131724;27;20052;-83
2023/10/07 00:10:39;;;;;;;3.13;1.63;;;2.70;99.20;;;;;;5115587;27;20035;-82
2023/10/07 00:13:09;;;;;;;7.05;2.25;;;2.70;99.10;;;;;;5134161;27;20030;-82
2023/10/07 00:15:42;;;;;;;3.67;1.25;;;2.60;99.20;;;;;;5119902;27;20035;-83
2023/10/07 00:18:14;;;;;;;1.50;1.30;;;2.60;99.30;;;;;;5113414;28;20020;-83
2023/10/07 00:20:49;;;;;;;5.03;1.42;;;2.60;99.30;;;;;;5119837;27;20033;-83
2023/10/07 00:23:19;;;;;;;1.77;1.33;;;2.60;99.40;;;;;;5133835;27;20105;-82
2023/10/07 00:25:50;;;;;;;5.57;1.92;;;2.60;99.40;;;;;;5127288;27;20020;-82
2023/10/07 00:28:32;;;;;;;3.00;1.75;;;2.60;99.40;;;;;;5107690;27;20407;-82
2023/10/07 00:31:05;;;;;;;4.07;1.50;;;2.60;99.60;;;;;;5133457;27;20027;-83
2023/10/07 00:34:02;;;;;;;3.22;2.28;;;2.60;99.70;;;;;;5115063;27;20034;-81
2023/10/07 00:36:41;;;;;;;5.28;1.40;;;2.60;99.60;;;;;;5121535;27;20023;-82
2023/10/07 00:39:09;;;;;;;2.67;1.27;;;2.60;99.70;;;;;;5118871;27;20100;-83
2023/10/07 00:41:51;;;;;;;1.42;1.27;;;2.60;99.70;;;;;;5133513;27;20496;-82
2023/10/07 00:44:21;;;;;;;4.03;1.52;;;2.60;99.70;;;;;;5118636;27;20026;-82
2023/10/07 00:52:29;;;;;;;1.85;1.10;;;2.60;99.60;;;;;;5137722;27;20027;-82
2023/10/07 00:55:08;;;;;;;7.00;1.90;;;2.50;99.60;;;;;;5135568;27;20023;-83
2023/10/07 01:05:35;;;;;;;2.85;1.40;;;2.50;99.60;;;;;;5134272;27;20030;-82
2023/10/07 01:08:06;;;;;;;5.95;1.75;;;2.40;99.80;;;;;;5108568;27;20102;-82
2023/10/07 01:10:31;;;;;;;4.30;1.45;;;2.40;99.60;;;;;;5114274;28;20137;-82
2023/10/07 01:13:03;;;;;;;4.57;1.40;;;2.40;99.70;;;;;;5133030;28;20015;-82
2023/10/07 01:15:30;;;;;;;2.60;1.60;;;2.40;99.80;;;;;;5134024;28;20059;-81
2023/10/07 01:18:05;;;;;;;3.20;1.40;;;2.40;99.70;;;;;;5119287;28;20080;-81
2023/10/07 01:21:11;;;;;;;3.17;1.52;;;2.30;99.80;;;;;;5137818;28;20023;-81
2023/10/07 01:23:34;;;;;;;3.42;1.45;;;2.30;99.70;;;;;;5133008;28;20059;-82
2023/10/07 01:26:14;;;;;;;3.58;2.00;;;2.30;99.80;;;;;;5134296;28;20445;-82
2023/10/07 01:28:41;;;;;;;1.38;1.27;;;2.30;99.90;;;;;;5115361;28;20099;-82
2023/10/07 01:31:07;;;;;;;2.58;1.38;;;2.30;99.90;;;;;;5136146;28;20100;-82
2023/10/07 01:33:41;;;;;;;4.22;1.40;;;2.30;99.90;;;;;;5134256;28;20019;-82
2023/10/07 01:36:24;;;;;;;1.98;1.45;;;2.30;99.90;;;;;;5133283;28;20027;-81
2023/10/07 01:38:51;;;;;;;2.25;1.58;;;2.30;99.90;;;;;;5122170;28;20019;-83
2023/10/07 01:41:19;;;;;;;3.60;1.57;;;2.30;99.90;;;;;;5132643;28;20030;-82
2023/10/07 01:44:05;;;;;;;2.65;2.03;;;2.30;99.90;;;;;;5114279;28;20771;-81
2023/10/07 01:46:31;;;;;;;4.25;1.90;;;2.30;99.90;;;;;;5132772;28;20046;-82
2023/10/07 01:49:01;;;;;;;2.70;1.77;;;2.20;99.90;;;;;;5132501;28;20068;-81
2023/10/07 01:51:30;;;;;;;3.05;1.60;;;2.20;99.90;;;;;;5132952;28;20096;-83
2023/10/07 01:54:03;;;;;;;6.85;1.85;;;2.20;99.90;;;;;;5124314;28;20020;-81
2023/10/07 01:56:31;;;;;;;1.77;1.30;;;2.20;99.90;;;;;;5147737;28;20034;-82
2023/10/07 01:58:58;;;;;;;3.42;1.38;;;2.20;99.80;;;;;;5132723;28;20019;-83
2023/10/07 02:01:28;;;;;;;3.95;1.80;;;2.20;99.80;;;;;;5114368;28;20434;-82
2023/10/07 02:04:06;;;;;;;5.28;1.73;;;2.10;99.80;;;;;;5113356;28;20035;-85
2023/10/07 02:06:42;;;;;;;4.13;1.42;;;2.10;99.80;;;;;;5102772;28;20016;-82
2023/10/07 02:09:08;;;;;;;2.50;1.60;;;2.10;99.80;;;;;;5110692;28;20035;-82
2023/10/07 02:11:36;;;;;;;2.85;1.63;;;2.00;99.90;;;;;;5132801;28;20431;-82
2023/10/07 02:14:02;;;;;;;4.90;2.08;;;2.10;99.90;;;;;;5114087;28;20023;-83
2023/10/07 02:16:28;;;;;;;2.38;1.48;;;2.00;99.80;;;;;;5132374;27;20027;-83
2023/10/07 02:18:54;;;;;;;2.85;1.50;;;2.00;99.90;;;;;;5135747;27;20023;-82
2023/10/07 02:21:22;;;;;;;2.80;1.55;;;2.00;99.90;;;;;;5135717;27;20023;-83
2023/10/07 02:23:49;;;;;;;4.28;1.45;;;2.00;99.90;;;;;;5117398;27;20368;-83
2023/10/07 02:26:21;;;;;;;2.42;1.40;;;2.00;99.90;;;;;;5135716;27;20035;-81
2023/10/07 02:28:52;;;;;;;2.60;1.83;;;2.00;99.90;;;;;;5117076;27;20055;-82
2023/10/07 02:31:19;;;;;;;4.75;1.80;;;2.00;99.80;;;;;;5117499;27;20485;-83
2023/10/07 02:33:57;;;;;;;3.47;2.15;;;2.00;99.60;;;;;;5135639;27;20110;-83
2023/10/07 02:36:31;;;;;;;6.47;2.45;;;2.00;99.60;;;;;;5136104;27;20054;-83
2023/10/07 02:39:18;;;;;;;9.60;4.72;;;2.00;99.60;;;;;;5136199;27;20406;-82
2023/10/07 02:41:46;;;;;;;;;;;2.00;99.60;;;;;;5136140;27;20392;-80
2023/10/07 02:44:16;;;;;;;5.38;3.70;;;2.00;99.40;;;;;;5135337;27;20426;-82
2023/10/07 02:46:42;;;;;;;8.65;4.50;;;1.90;99.40;;;;;;5103858;28;20050;-83
2023/10/07 02:49:11;;;;;;;4.75;3.38;;;1.90;99.40;;;;;;5133335;27;20076;-82
2023/10/07 02:51:49;;;;;;;5.22;4.35;;;1.90;99.40;;;;;;5115505;27;20506;-83
2023/10/07 02:54:17;;;;;;;8.85;5.07;;;1.90;99.50;;;;;;5131318;27;20058;-83
2023/10/07 02:56:54;;;;;;;6.30;3.75;;;1.90;99.60;;;;;;5126543;27;20019;-82
2023/10/07 02:59:29;;;;;;;6.90;4.32;;;1.90;99.60;;;;;;5116734;27;20023;-81
2023/10/07 03:04:42;;;;;;;4.28;2.63;;;1.90;99.70;;;;;;5135444;27;20084;-81
2023/10/07 03:07:15;;;;;;;3.97;2.67;;;1.90;99.70;;;;;;5135336;27;20029;-83
2023/10/07 03:09:51;;;;;;;4.95;2.28;;;2.00;99.80;;;;;;5114518;27;20385;-81
2023/10/07 03:12:27;;;;;;;4.85;2.05;;;2.00;99.80;;;;;;5118259;27;20019;-81
2023/10/07 03:14:57;;;;;;;3.60;2.22;;;2.00;99.80;;;;;;5134455;27;20062;-82
2023/10/07 03:17:33;;;;;;;6.25;2.17;;;2.10;99.80;;;;;;5119470;27;20475;-81
2023/10/07 03:20:23;;;;;;;5.53;2.47;;;2.00;99.70;;;;;;5120397;27;20015;-81
2023/10/07 03:23:10;;;;;;;2.33;1.58;;;2.10;99.60;;;;;;5134936;27;20055;-82
2023/10/07 03:25:55;;;;;;;3.33;1.58;;;2.10;99.60;;;;;;5134901;27;20476;-82
2023/10/07 03:28:30;;;;;;;2.42;1.67;;;2.20;99.50;;;;;;5133229;27;20019;-81
2023/10/07 03:30:56;;;;;;;2.42;1.63;;;2.20;99.40;;;;;;5105994;27;20095;-81
2023/10/07 03:33:45;;;;;;;3.75;2.25;;;2.20;99.30;;;;;;5121031;27;20533;-83
2023/10/07 03:38:55;;;;;;;2.78;1.88;;;2.30;98.90;;;;;;5136409;27;20391;-81
2023/10/07 03:41:21;;;;;;;6.15;2.08;;;2.30;98.90;;;;;;5145687;27;20027;-81
2023/10/07 03:43:47;;;;;;;6.03;1.63;;;2.30;98.80;;;;;;5154533;27;20020;-84
2023/10/07 03:46:16;;;;;;;4.90;2.13;;;2.30;98.80;;;;;;5129444;27;20562;-82
2023/10/07 03:48:53;;;;;;;4.53;2.50;;;2.30;98.80;;;;;;5128452;27;20023;-82
2023/10/07 03:51:22;;;;;;;4.40;2.00;;;2.30;99.00;;;;;;5123314;27;20027;-82
2023/10/07 03:53:49;;;;;;;5.57;2.47;;;2.40;98.70;;;;;;5116253;27;20023;-81
2023/10/07 03:56:16;;;;;;;2.90;1.90;;;2.40;98.50;;;;;;5133102;27;20492;-81
2023/10/07 03:58:43;;;;;;;4.97;1.90;;;2.40;98.40;;;;;;5134252;27;20337;-81
2023/10/07 04:01:16;;;;;;;5.10;1.55;;;2.40;98.30;;;;;;5119662;27;20023;-81
2023/10/07 04:03:47;;;;;;;2.58;1.77;;;2.40;98.20;;;;;;5115888;27;20034;-81
2023/10/07 04:06:28;;;;;;;4.07;2.30;;;2.40;98.30;;;;;;5111057;28;20019;-82
2023/10/07 04:09:05;;;;;;;4.60;2.22;;;2.50;98.30;;;;;;5134830;27;20035;-81
2023/10/07 04:11:33;;;;;;;2.42;1.33;;;2.60;98.30;;;;;;5137811;27;20262;-81
2023/10/07 04:14:05;;;;;;;2.08;1.63;;;2.70;98.20;;;;;;5134535;27;20054;-81
2023/10/07 04:16:33;;;;;;;4.97;1.65;;;2.70;98.00;;;;;;5133402;27;20051;-81
2023/10/07 04:21:44;;;;;;;3.20;1.67;;;2.90;97.70;;;;;;5135657;27;20026;-82
2023/10/07 04:24:12;;;;;;;5.47;2.00;;;2.90;97.40;;;;;;5119113;27;20072;-82
2023/10/07 04:26:51;;;;;;;2.55;1.67;;;3.00;97.30;;;;;;5122796;27;20079;-81
2023/10/07 04:29:18;;;;;;;13.75;3.50;;;3.10;97.10;;;;;;5134890;27;20114;-80
2023/10/07 04:31:51;;;;;;;3.85;2.58;;;3.20;97.10;;;;;;5135415;27;20091;-82
2023/10/07 04:34:18;;;;;;;6.13;2.05;;;3.30;97.10;;;;;;5123954;27;20039;-83
2023/10/07 04:40:27;;;;;;;7.60;2.28;;;3.50;97.00;;;;;;5133730;27;20041;-84
2023/10/07 04:42:38;;;;;;;2.90;2.00;;;3.60;96.70;;;;;;5128378;27;20024;-82
2023/10/07 04:45:24;;;;;;;7.57;2.42;;;3.60;96.20;;;;;;5126958;27;20027;-82
2023/10/07 04:48:23;;;;;;;5.30;2.97;;;3.60;95.90;;;;;;5126241;27;20454;-84
2023/10/07 04:51:02;;;;;;;7.38;2.10;;;3.50;95.70;;;;;;5134023;27;20080;-81
2023/10/07 04:53:37;;;;;;;13.82;2.42;;;3.40;95.60;;;;;;5132906;27;20019;-81
2023/10/07 04:56:05;;;;;;;7.15;2.55;;;3.40;95.80;;;;;;5120242;27;20027;-81
2023/10/07 04:58:31;;;;;;;3.80;1.75;;;3.40;95.70;;;;;;5133457;27;20020;-82
2023/10/07 05:01:04;;;;;;;4.68;1.70;;;3.30;95.50;;;;;;5133250;27;20464;-82
2023/10/07 05:03:34;;;;;;;6.05;3.17;;;3.20;95.70;;;;;;5133190;27;20027;-81
2023/10/07 05:06:00;;;;;;;10.48;2.88;;;3.10;95.80;;;;;;5128913;27;20578;-82
2023/10/07 05:08:27;;;;;;;4.40;1.73;;;3.10;95.90;;;;;;5129938;27;20113;-81
2023/10/07 05:10:54;;;;;;;;;;;3.10;95.90;;;;;;5106478;28;20055;-81
2023/10/07 05:13:21;;;;;;;4.78;2.58;;;3.10;95.80;;;;;;5112456;28;19958;-82
2023/10/07 05:15:47;;;;;;;6.05;2.00;;;3.10;95.70;;;;;;5100551;28;20026;-82
2023/10/07 05:18:16;;;;;;;1.98;1.30;;;3.10;95.70;;;;;;5113466;28;20035;-82
2023/10/07 05:20:46;;;;;;;4.53;2.20;;;3.20;95.60;;;;;;5113387;28;20016;-83
2023/10/07 05:23:17;;;;;;;4.05;1.63;;;3.20;95.50;;;;;;5098193;28;20020;-82
2023/10/07 05:25:50;;;;;;;3.30;1.90;;;3.10;95.20;;;;;;5112138;28;20055;-82
2023/10/07 05:28:20;;;;;;;4.53;2.22;;;3.10;95.20;;;;;;5112122;28;20369;-81
2023/10/07 05:30:50;;;;;;;2.80;1.75;;;3.10;95.20;;;;;;5121502;28;20088;-81
2023/10/07 05:33:25;;;;;;;2.70;1.45;;;3.10;95.20;;;;;;5127722;28;20484;-81
2023/10/07 05:36:13;;;;;;;3.65;2.35;;;3.30;95.30;;;;;;5113255;28;20051;-82
2023/10/07 05:38:44;;;;;;;3.88;2.10;;;3.30;95.10;;;;;;5110911;28;20480;-84
2023/10/07 05:41:14;;;;;;;4.68;2.33;;;3.30;95.00;;;;;;5101664;28;20445;-82
2023/10/07 05:43:48;;;;;;;5.93;1.90;;;3.30;94.90;;;;;;5110843;28;20050;-84
2023/10/07 05:46:20;;;;;;;2.72;1.20;;;3.40;94.80;;;;;;5099932;28;20023;-83
2023/10/07 05:48:47;;;;;;;3.63;1.67;;;3.40;94.80;;;;;;5109189;28;20028;-82
2023/10/07 05:51:13;;;;;;;5.32;2.13;;;3.50;94.80;;;;;;5109890;28;20032;-86
2023/10/07 05:53:42;;;;;;;4.55;1.92;;;3.50;94.70;;;;;;5116288;28;20087;-82
2023/10/07 05:56:09;;;;;;;3.35;1.77;;;3.50;94.40;;;;;;5102775;28;20079;-87
2023/10/07 05:58:36;;;;;;;7.47;1.73;;;3.60;94.10;;;;;;5117145;28;20023;-85
2023/10/07 06:01:03;;;;;;;;;;;3.60;94.00;;;;;;5117345;28;20019;-84
2023/10/07 06:03:30;;;;;;;5.78;1.42;;;3.60;94.00;;;;;;5114959;28;19904;-83
2023/10/07 06:06:01;;;;;;;6.30;1.67;;;3.60;93.80;;;;;;5115557;28;20499;-81
2023/10/07 06:08:28;;;;;;;3.90;1.70;;;3.60;93.70;;;;;;5116549;28;20019;-84
2023/10/07 06:10:59;;;;;;;4.68;2.40;;;3.70;93.80;;;;;;5133830;27;20039;-82
2023/10/07 06:13:28;;;;;;;11.25;2.45;;;3.80;93.80;;;;;;5120145;27;20051;-83
2023/10/07 06:15:59;;;;;;;4.45;1.83;;;3.80;93.20;;;;;;5137373;27;20080;-83
2023/10/07 06:18:25;;;;;;;3.33;1.63;;;3.90;93.30;;;;;;5142262;27;20011;-81
2023/10/07 06:20:52;;;;;;;2.60;1.40;;;4.00;93.10;;;;;;5141029;27;20062;-81
2023/10/07 06:23:24;;;;;;;2.67;1.52;;;4.00;92.70;;;;;;5150377;27;20024;-81
2023/10/07 06:25:51;;;;;;;7.15;1.42;;;4.10;92.30;;;;;;5148761;27;20026;-82
2023/10/07 06:31:10;;;;;;;3.75;1.45;;;4.10;92.00;;;;;;5136006;27;20046;-81
2023/10/07 06:33:41;;;;;;;2.95;1.45;;;4.20;91.90;;;;;;5117464;27;20483;-81
2023/10/07 06:36:10;;;;;;;3.78;1.70;;;4.10;91.60;;;;;;5135990;27;20019;-81
2023/10/07 06:38:37;;;;;;;2.50;1.42;;;4.00;91.70;;;;;;5136251;27;20058;-82
2023/10/07 06:41:10;;;;;;;3.05;1.55;;;4.00;92.20;;;;;;5136359;27;20026;-81
2023/10/07 06:43:43;;;;;;;1.92;1.08;;;3.80;92.60;;;;;;5106218;27;20031;-83
2023/10/07 06:46:11;;;;;;;3.75;2.10;;;3.50;93.80;;;;;;5138519;27;20037;-82
2023/10/07 06:48:37;;;;;;;;;;;3.30;94.80;;;;;;5137415;27;20461;-82
2023/10/07 06:51:03;;;;;;;3.58;1.95;;;3.30;95.40;;;;;;5117096;27;19911;-82
2023/10/07 06:53:30;;;;;;;4.28;1.30;;;3.10;96.20;;;;;;5135517;27;20102;-83
2023/10/07 06:55:58;;;;;;;3.78;1.75;;;3.00;97.20;;;;;;5135925;27;20045;-84
2023/10/07 06:58:25;;;;;;;;;;;2.90;97.70;;;;;;5118022;27;20120;-83
2023/10/07 07:00:56;;;;;;;2.20;1.33;;;3.00;97.80;;;;;;5117261;27;19932;-83
2023/10/07 07:03:25;;;;;;;4.05;1.25;;;3.00;98.30;;;;;;5135166;27;20023;-84
2023/10/07 07:05:52;;;;;;;2.63;1.70;;;3.00;98.80;;;;;;5117226;27;20441;-82
2023/10/07 07:08:24;;;;;;;4.15;1.85;;;3.00;99.20;;;;;;5114137;27;20015;-83
2023/10/07 07:10:56;;;;;;;3.42;1.65;;;3.10;99.60;;;;;;5139290;27;20592;-83
2023/10/07 07:13:28;;;;;;;4.93;1.60;;;3.10;99.80;;;;;;5129249;27;20057;-82
2023/10/07 07:15:58;;;;;;;5.20;2.42;;;3.10;99.90;;;;;;5137321;27;20201;-84
2023/10/07 07:18:27;;;;;;;7.75;1.83;;;3.10;99.90;;;;;;5127631;27;20042;-82
2023/10/07 07:23:25;;;;;;;3.97;1.90;;;3.00;99.90;;;;;;5139947;27;20053;-85
2023/10/07 07:28:31;;;;;;;6.35;3.45;;;2.90;99.90;;;;;;5120448;27;20068;-84
2023/10/07 07:30:58;;;;;;;7.65;3.20;;;2.90;99.90;;;;;;5116328;27;20039;-83
2023/10/07 07:33:34;;;;;;;11.55;4.32;;;2.90;99.90;;;;;;5135226;27;20069;-83
2023/10/07 07:36:06;;;;;;;8.23;3.75;;;3.00;99.90;;;;;;5135065;27;20027;-84
2023/10/07 07:38:43;;;;;;;9.30;4.47;;;3.00;99.90;;;;;;5134628;27;20076;-86
2023/10/07 07:41:11;;;;;;;9.05;5.07;;;3.00;99.90;;;;;;5131441;27;20019;-87
2023/10/07 07:43:39;;;;;;;14.88;4.90;;;3.00;99.90;;;;;;5137126;27;20027;-82
2023/10/07 07:46:18;;;;;;;8.50;5.43;;;3.00;99.90;;;;;;5113649;27;20035;-84
2023/10/07 07:48:53;;;;;;;11.05;3.83;;;3.00;99.90;;;;;;5122335;27;20034;-84
2023/10/07 07:51:24;;;;;;;8.43;4.57;;;3.10;99.90;;;;;;5123891;27;20036;-85
2023/10/07 07:53:50;;;;;;;14.00;5.80;;;3.10;99.90;;;;;;5139162;27;20019;-86
2023/10/07 07:56:16;;;;;;;12.68;5.10;;;3.10;99.90;;;;;;5152240;27;20019;-87
2023/10/07 07:58:47;;;;;;;10.73;5.50;;;3.10;99.90;;;;;;5142502;27;20004;-90
2023/10/07 08:01:16;;;;;;;7.32;3.35;;;3.20;99.90;;;;;;5134750;27;20019;-87
2023/10/07 08:03:42;;;;;;;8.00;3.60;;;3.20;99.90;;;;;;5103634;28;20079;-88
2023/10/07 08:06:12;;;;;;;6.10;3.58;;;3.20;99.90;;;;;;5126815;27;20011;-87
2023/10/07 08:08:38;;;;;;;16.85;5.78;;;3.20;99.90;;;;;;5105363;28;20030;-87
2023/10/07 08:11:05;;;;;;;7.10;3.80;;;3.20;99.90;;;;;;5110332;28;20493;-85
2023/10/07 08:13:31;;;;;;;8.43;4.72;;;3.30;99.90;;;;;;5105967;27;20106;-87
2023/10/07 08:16:06;;;;;;;11.60;5.13;;;3.30;99.90;;;;;;5114172;27;20023;-86
2023/10/07 08:18:32;;;;;;;8.82;3.85;;;3.30;99.90;;;;;;5134169;27;20014;-86
2023/10/07 08:21:10;;;;;;;5.38;3.60;;;3.30;99.90;;;;;;5135607;27;20027;-86
2023/10/07 08:23:44;;;;;;;7.50;4.32;;;3.40;99.90;;;;;;5118217;27;20038;-86
2023/10/07 08:26:12;;;;;;;6.95;4.55;;;3.50;99.90;;;;;;5134715;27;20020;-88
2023/10/07 08:31:13;;;;;;;5.85;3.70;;;3.50;99.90;;;;;;5128482;27;20046;-86
2023/10/07 08:33:39;;;;;;;9.27;3.83;;;3.50;99.90;;;;;;5108588;27;20015;-86
2023/10/07 08:36:07;;;;;;;4.85;3.63;;;3.50;99.90;;;;;;5104406;28;20052;-89
2023/10/07 08:38:45;;;;;;;8.77;4.03;;;3.40;99.90;;;;;;5123662;27;20023;-90
2023/10/07 08:41:16;;;;;;;7.60;4.70;;;3.40;99.90;;;;;;5115653;27;20121;-87
2023/10/07 08:43:45;;;;;;;6.82;2.92;;;3.50;99.90;;;;;;5115885;27;20488;-86
2023/10/07 08:46:16;;;;;;;7.38;3.65;;;3.60;99.90;;;;;;5120891;27;20118;-90
2023/10/07 08:49:13;;;;;;;5.47;3.85;;;3.60;99.90;;;;;;5126277;27;20091;-91
2023/10/07 08:51:42;;;;;;;9.82;3.38;;;3.50;99.90;;;;;;5141832;27;20511;-90
2023/10/07 08:54:17;;;;;;;7.47;3.75;;;3.60;99.90;;;;;;5112023;28;20027;-89
2023/10/07 08:56:54;;;;;;;6.85;2.75;;;3.50;99.90;;;;;;5119413;27;20360;-88
2023/10/07 08:59:26;;;;;;;7.30;3.97;;;3.50;99.90;;;;;;5115123;27;20023;-82
2023/10/07 09:01:57;;;;;;;8.52;3.28;;;3.60;99.90;;;;;;5147467;27;20027;-84
2023/10/07 09:04:25;;;;;;;5.68;3.58;;;3.60;99.90;;;;;;5145703;27;20078;-89
2023/10/07 09:06:51;;;;;;;7.50;4.25;;;3.60;99.90;;;;;;5115278;28;20023;-88
2023/10/07 09:09:43;;;;;;;5.15;3.15;;;3.70;99.90;;;;;;5127344;28;20564;-88
2023/10/07 09:15:12;;;;;;;4.22;3.10;;;3.80;99.90;;;;;;5139237;28;20379;-83
2023/10/07 09:17:34;;;;;;;6.20;3.00;;;3.90;99.90;;;;;;5129788;28;20043;-91
2023/10/07 09:20:01;;;;;;;5.70;2.28;;;4.00;99.90;;;;;;5143610;28;20041;-88
2023/10/07 09:22:33;;;;;;;7.47;3.25;;;4.00;99.90;;;;;;5144048;28;20015;-88
2023/10/07 09:28:01;;;;;;;8.00;3.85;;;4.00;99.90;;;;;;5130858;27;20034;-91
2023/10/07 09:30:44;;;;;;;6.20;3.30;;;4.00;99.90;;;;;;5155133;27;20090;-87
2023/10/07 09:33:21;;;;;;;3.30;2.20;;;4.20;99.90;;;;;;5142191;27;20023;-90
2023/10/07 09:35:49;;;;;;;7.80;3.42;;;4.20;99.90;;;;;;5110922;28;20031;-90
2023/10/07 09:38:41;;;;;;;5.93;2.42;;;4.20;99.90;;;;;;5113655;28;20114;-86
2023/10/07 09:43:51;;;;;;;5.65;2.67;;;4.30;99.90;;;;;;5143670;27;20038;-84
2023/10/07 09:46:27;;;;;;;4.82;2.88;;;4.30;99.90;;;;;;5120976;28;20030;-85
2023/10/07 09:48:57;;;;;;;5.95;3.40;;;4.30;99.90;;;;;;5124225;27;20030;-85
2023/10/07 09:51:34;;;;;;;3.85;2.50;;;4.30;99.90;;;;;;5118108;28;20511;-85
2023/10/07 09:54:49;;;;;;;7.22;4.13;;;4.30;99.90;;;;;;5120299;27;20476;-87
2023/10/07 09:57:42;;;;;;;9.15;3.42;;;4.40;99.90;;;;;;5129657;27;20641;-85
2023/10/07 10:00:42;;;;;;;6.30;3.53;;;4.40;99.90;;;;;;5145369;27;20027;-84
2023/10/07 10:04:11;;;;;;;4.63;3.38;;;4.50;99.90;;;;;;5116709;27;20129;-85
2023/10/07 10:07:22;;;;;;;7.00;4.13;;;4.50;99.90;;;;;;5047143;28;20025;-84
2023/10/07 10:18:31;;;;;;;6.55;2.63;;;4.80;99.90;;;;;;5144797;27;20534;-89
2023/10/07 10:21:12;;;;;;;8.40;3.75;;;4.80;99.90;;;;;;5134639;27;20023;-87
2023/10/07 10:23:40;;;;;;;3.90;2.65;;;4.90;99.90;;;;;;5139523;27;20030;-89
2023/10/07 10:26:20;;;;;;;4.07;2.55;;;4.80;99.90;;;;;;5126485;28;20019;-89
2023/10/07 10:29:15;;;;;;;4.95;2.88;;;4.90;99.90;;;;;;5126305;27;20030;-92
2023/10/07 10:31:49;;;;;;;2.40;2.03;;;5.00;99.90;;;;;;5139961;27;20054;-84
2023/10/07 10:34:16;;;;;;;2.92;2.28;;;4.90;99.90;;;;;;5140557;27;20027;-86
2023/10/07 10:36:48;;;;;;;5.15;3.50;;;5.00;99.90;;;;;;5129688;27;20545;-81
2023/10/07 10:39:34;;;;;;;2.85;2.00;;;5.00;99.90;;;;;;5136789;27;20012;-89
2023/10/07 10:42:05;;;;;;;7.47;3.95;;;5.10;99.90;;;;;;5120142;27;20039;-88
2023/10/07 10:44:38;;;;;;;7.32;4.25;;;5.10;99.90;;;;;;5137649;27;20019;-86
2023/10/07 10:47:04;;;;;;;9.10;4.65;;;5.20;99.90;;;;;;5117553;27;20024;-86
2023/10/07 10:49:35;;;;;;;5.82;4.47;;;5.20;99.90;;;;;;5137413;27;20020;-91
2023/10/07 10:52:02;;;;;;;5.60;3.63;;;5.30;99.90;;;;;;5146097;27;20019;-92
2023/10/07 10:54:28;;;;;;;;;;;5.30;99.90;;;;;;5115896;27;20021;-95
2023/10/07 10:56:59;;;;;;;4.60;3.45;;;5.30;99.90;;;;;;5125796;28;19904;-92
2023/10/07 10:59:42;;;;;;;4.65;3.15;;;5.30;99.90;;;;;;5136303;27;20047;-92
2023/10/07 11:02:20;;;;;;;4.28;3.10;;;5.40;99.90;;;;;;5139198;27;20096;-86
2023/10/07 11:04:55;;;;;;;3.28;1.80;;;5.40;99.90;;;;;;5138876;27;20410;-84
2023/10/07 11:07:25;;;;;;;3.30;2.85;;;5.40;99.90;;;;;;5127654;27;20097;-84
2023/10/07 11:09:51;;;;;;;3.85;3.10;;;5.40;99.90;;;;;;5136631;27;20088;-86
2023/10/07 11:12:18;;;;;;;4.78;2.72;;;5.40;99.90;;;;;;5141484;27;20106;-83
2023/10/07 11:14:49;;;;;;;2.30;1.87;;;5.40;99.90;;;;;;5125135;27;20051;-83
2023/10/07 11:17:18;;;;;;;6.82;2.92;;;5.40;99.90;;;;;;5108544;28;20031;-82
2023/10/07 11:19:47;;;;;;;3.33;2.50;;;5.50;99.90;;;;;;5112512;27;20060;-83
2023/10/07 11:22:16;;;;;;;4.68;2.70;;;5.50;99.90;;;;;;5119909;27;20396;-82
2023/10/07 11:24:41;;;;;;;3.25;1.95;;;5.50;99.90;;;;;;5139002;27;20019;-81
2023/10/07 11:27:08;;;;;;;5.93;2.30;;;5.60;99.90;;;;;;5110406;27;20045;-84
2023/10/07 11:29:35;;;;;;;7.78;3.10;;;5.60;99.90;;;;;;5138402;27;20427;-81
2023/10/07 11:32:08;;;;;;;3.60;3.17;;;5.60;99.90;;;;;;5134733;27;20020;-81
2023/10/07 11:34:38;;;;;;;2.17;1.92;;;5.60;99.90;;;;;;5141586;27;20011;-90
2023/10/07 11:37:13;;;;;;;2.55;2.10;;;5.70;99.90;;;;;;5132834;27;20019;-90
2023/10/07 11:39:45;;;;;;;3.25;1.95;;;5.70;99.90;;;;;;5151248;27;20106;-90
2023/10/07 11:42:20;;;;;;;5.07;2.33;;;5.80;99.90;;;;;;5126660;27;20019;-85
2023/10/07 11:44:53;;;;;;;3.33;2.60;;;5.90;99.90;;;;;;5118778;27;20023;-85
2023/10/07 11:47:19;;;;;;;4.13;2.85;;;5.90;99.90;;;;;;5136786;27;20085;-84
2023/10/07 11:49:49;;;;;;;5.55;4.53;;;5.90;99.90;;;;;;5116124;27;20035;-85
2023/10/07 11:52:19;;;;;;;6.97;4.95;;;6.00;99.90;;;;;;5110645;27;20427;-87
2023/10/07 11:54:48;;;;;;;7.30;5.82;;;6.00;99.90;;;;;;5129881;27;20020;-87
2023/10/07 11:57:17;;;;;;;9.40;6.30;;;6.00;99.90;;;;;;5132361;27;20019;-89
2023/10/07 11:59:44;;;;;;;6.30;3.75;;;6.00;99.90;;;;;;5137649;27;20469;-88
2023/10/07 12:02:11;;;;;;;7.00;4.45;;;6.10;99.90;;;;;;5138049;27;20472;-86
2023/10/07 12:04:44;;;;;;;7.47;4.55;;;6.10;99.90;;;;;;5112125;27;20068;-91
2023/10/07 12:07:14;;;;;;;5.78;4.05;;;6.10;99.90;;;;;;5133092;27;20030;-93
2023/10/07 12:09:41;;;;;;;4.93;3.53;;;6.20;99.90;;;;;;5114385;27;20047;-88
2023/10/07 12:12:09;;;;;;;4.70;3.58;;;6.20;99.90;;;;;;5110753;27;20033;-87
2023/10/07 12:14:36;;;;;;;6.25;3.90;;;6.30;99.90;;;;;;5117459;27;20547;-89
2023/10/07 12:17:04;;;;;;;4.63;3.65;;;6.30;99.90;;;;;;5135424;27;20552;-87
2023/10/07 12:19:32;;;;;;;6.55;4.35;;;6.30;99.90;;;;;;5135887;27;20043;-86
2023/10/07 12:21:59;;;;;;;5.75;3.78;;;6.30;99.90;;;;;;5115689;27;20030;-86
2023/10/07 12:24:25;;;;;;;6.25;3.10;;;6.40;99.90;;;;;;5118321;27;20031;-85
2023/10/07 12:26:55;;;;;;;5.80;3.17;;;6.50;99.90;;;;;;5140357;27;20028;-92
2023/10/07 12:29:26;;;;;;;3.22;2.08;;;6.50;99.90;;;;;;5114869;27;20358;-90
2023/10/07 12:31:52;;;;;;;9.27;4.72;;;6.50;99.90;;;;;;5081578;28;20052;-88
2023/10/07 12:34:19;;;;;;;6.93;3.85;;;6.50;99.90;;;;;;5121314;27;20027;-86
2023/10/07 12:36:46;;;;;;;;;;;6.60;99.90;;;;;;5116526;28;20028;-87
2023/10/07 12:39:13;;;;;;;6.32;3.28;;;6.60;99.90;;;;;;5113894;27;19913;-88
2023/10/07 12:41:45;;;;;;;3.85;3.47;;;6.60;99.90;;;;;;5111390;28;20020;-87
2023/10/07 12:44:11;;;;;;;10.40;4.35;;;6.50;99.90;;;;;;5109033;28;20023;-86
2023/10/07 12:46:38;;;;;;;5.90;2.92;;;6.60;99.90;;;;;;5139780;27;20008;-88
2023/10/07 12:49:09;;;;;;;5.47;3.33;;;6.60;99.90;;;;;;5132363;27;20023;-87
2023/10/07 12:51:42;;;;;;;6.55;3.28;;;6.70;99.90;;;;;;5125331;27;20373;-92
2023/10/07 12:54:11;;;;;;;5.28;3.10;;;6.80;99.90;;;;;;5112763;27;20023;-89
2023/10/07 12:56:38;;;;;;;9.20;5.00;;;6.90;99.90;;;;;;5117261;27;20030;-88
2023/10/07 12:59:17;;;;;;;6.55;4.97;;;6.90;99.90;;;;;;5117583;27;20023;-88
2023/10/07 13:01:56;;;;;;;3.60;2.60;;;7.00;99.90;;;;;;5104044;27;20032;-87
2023/10/07 13:04:29;;;;;;;4.97;3.92;;;7.00;99.90;;;;;;5130587;27;20039;-88
2023/10/07 13:07:03;;;;;;;6.70;4.53;;;7.10;99.90;;;;;;5129018;27;20054;-89
2023/10/07 13:09:32;;;;;;;4.38;3.08;;;7.00;99.90;;;;;;5133223;27;20123;-88
2023/10/07 13:12:00;;;;;;;5.50;3.55;;;7.10;99.90;;;;;;5112360;28;20051;-85
2023/10/07 13:14:26;;;;;;;3.85;2.90;;;7.10;99.90;;;;;;5115373;28;20033;-90
2023/10/07 13:16:59;;;;;;;4.03;2.87;;;7.10;99.90;;;;;;5125317;28;20365;-90
2023/10/07 13:19:35;;;;;;;4.10;2.50;;;7.10;99.90;;;;;;5101948;28;20110;-92
2023/10/07 13:22:05;;;;;;;3.55;2.60;;;7.10;99.90;;;;;;5148110;28;20019;-91
2023/10/07 13:24:36;;;;;;;5.43;4.13;;;7.10;99.90;;;;;;5131253;28;20020;-91
2023/10/07 13:27:04;;;;;;;4.15;3.55;;;7.20;99.90;;;;;;5129452;28;20030;-89
2023/10/07 13:29:34;;;;;;;7.43;2.80;;;7.20;99.90;;;;;;5127198;28;20077;-91
2023/10/07 13:32:03;;;;;;;4.28;3.25;;;7.20;99.90;;;;;;5113782;28;20142;-87
2023/10/07 13:34:31;;;;;;;5.43;3.95;;;7.20;99.90;;;;;;5118525;28;20019;-88
2023/10/07 13:37:00;;;;;;;8.02;4.90;;;7.30;99.90;;;;;;5106033;28;20035;-94
2023/10/07 13:39:31;;;;;;;4.20;3.55;;;7.30;99.90;;;;;;5129265;28;20050;-88
2023/10/07 13:41:57;;;;;;;;;;;7.40;99.90;;;;;;5115186;28;20030;-88
2023/10/07 13:44:23;;;;;;;6.32;3.60;;;7.40;99.90;;;;;;5115470;28;19912;-87
2023/10/07 13:46:50;;;;;;;5.68;3.95;;;7.40;99.90;;;;;;5135755;28;20094;-89
2023/10/07 13:49:15;;;;;;;4.03;2.85;;;7.40;99.90;;;;;;5110349;28;20108;-86
2023/10/07 13:51:43;;;;;;;5.68;3.58;;;7.40;99.90;;;;;;5130471;28;20043;-93
2023/10/07 13:54:23;;;;;;;;;;;7.40;99.90;;;;;;5105706;28;20035;-90
2023/10/07 13:56:56;;;;;;;3.80;3.10;;;7.50;99.90;;;;;;5118881;28;19904;-90
2023/10/07 13:59:22;;;;;;;4.35;3.03;;;7.50;99.90;;;;;;5099540;28;20016;-93
2023/10/07 14:01:51;;;;;;;3.92;3.03;;;7.50;99.90;;;;;;5104886;28;20079;-88
2023/10/07 14:04:21;;;;;;;6.45;4.05;;;7.60;99.90;;;;;;5133309;28;20015;-87
2023/10/07 14:06:54;;;;;;;4.45;3.90;;;7.60;99.90;;;;;;5114592;28;20011;-87
2023/10/07 14:09:28;;;;;;;7.78;4.32;;;7.60;99.90;;;;;;5120069;28;20539;-86
2023/10/07 14:11:55;;;;;;;5.18;3.80;;;7.70;99.90;;;;;;5097230;28;20071;-87
2023/10/07 14:14:22;;;;;;;6.72;3.90;;;7.80;99.90;;;;;;5135124;27;20057;-89